Time;durP1;ratioP1;P1;durP2;ratioP2;P2;SDS_P1;SDS_P2;PMS_P1;PMS_P2;Temp;Humidity;BMP_temperature;BMP_pressure;BME280_temperature;BME280_humidity;BME280_pressure;Samples;Min_cycle;Max_cycle;Signal;HPM_P1;HPM_P2
2023/04/14 00:00:54;;;;;;;3.73;3.43;;;8.70;57.20;;;;;;20498;6788;307082;-73
2023/04/14 00:03:29;;;;;;;4.57;3.20;;;8.80;56.80;;;;;;20694;6788;122720;-73
2023/04/14 00:06:05;;;;;;;3.13;2.93;;;8.90;56.90;;;;;;20696;6788;119610;-73
2023/04/14 00:08:41;;;;;;;2.90;2.70;;;8.70;57.30;;;;;;20686;6788;116990;-73
2023/04/14 00:11:16;;;;;;;3.37;3.10;;;8.50;57.90;;;;;;20658;6788;120072;-73
2023/04/14 00:13:55;;;;;;;4.00;3.70;;;8.40;58.40;;;;;;20501;6792;278706;-73
2023/04/14 00:16:27;;;;;;;3.93;3.60;;;8.60;57.10;;;;;;20525;6788;306400;-72
2023/04/14 00:19:04;;;;;;;4.20;3.53;;;9.30;54.10;;;;;;20519;6789;278615;-73
2023/04/14 00:21:40;;;;;;;4.20;3.90;;;9.20;54.30;;;;;;20436;6792;317226;-73
2023/04/14 00:24:15;;;;;;;3.93;3.23;;;9.50;53.40;;;;;;20762;6778;119278;-73
2023/04/14 00:26:51;;;;;;;3.70;3.33;;;9.00;54.90;;;;;;20712;6793;117242;-73
2023/04/14 00:29:27;;;;;;;3.93;3.47;;;9.00;54.90;;;;;;20503;6797;294270;-73
2023/04/14 00:32:04;;;;;;;3.77;3.50;;;9.10;54.90;;;;;;20660;6797;124120;-73
2023/04/14 00:34:39;;;;;;;3.50;3.20;;;9.00;55.10;;;;;;20751;6787;123446;-72
2023/04/14 00:37:15;;;;;;;4.00;3.55;;;8.80;55.90;;;;;;20554;6768;311218;-74
2023/04/14 00:39:51;;;;;;;4.33;3.70;;;8.90;55.40;;;;;;20701;6792;118329;-73
2023/04/14 00:42:28;;;;;;;3.80;3.50;;;8.90;55.40;;;;;;20590;6800;117525;-74
2023/04/14 00:45:03;;;;;;;3.93;3.13;;;8.70;55.90;;;;;;20646;6814;117197;-73
2023/04/14 00:47:40;;;;;;;3.20;2.90;;;8.50;56.50;;;;;;20631;6814;117146;-73
2023/04/14 00:50:15;;;;;;;3.50;3.20;;;8.40;57.10;;;;;;20645;6814;117659;-73
2023/04/14 00:52:52;;;;;;;5.80;3.70;;;8.50;57.60;;;;;;20336;6814;309074;-73
2023/04/14 00:55:28;;;;;;;4.47;4.07;;;8.50;56.90;;;;;;20507;6784;281296;-73
2023/04/14 00:58:03;;;;;;;3.83;3.53;;;8.90;55.70;;;;;;20730;6784;117086;-73
2023/04/14 01:00:39;;;;;;;5.07;3.50;;;9.00;55.50;;;;;;20526;6784;288659;-73
2023/04/14 01:03:15;;;;;;;4.50;4.10;;;9.00;55.50;;;;;;20296;6784;313846;-73
2023/04/14 01:05:51;;;;;;;3.67;3.30;;;9.30;54.40;;;;;;20784;6770;117161;-73
2023/04/14 01:08:46;;;;;;;4.40;3.70;;;9.10;54.60;;;;;;20499;6784;325782;-73
2023/04/14 01:11:31;;;;;;;5.45;4.10;;;9.40;53.90;;;;;;20472;6784;339932;-73
2023/04/14 01:14:09;;;;;;;3.33;3.13;;;9.40;53.90;;;;;;20734;6784;117423;-73
2023/04/14 01:16:48;;;;;;;4.87;3.63;;;9.20;54.20;;;;;;20782;6784;117452;-73
2023/04/14 01:19:23;;;;;;;3.72;3.40;;;8.90;54.70;;;;;;20557;6784;308064;-73
2023/04/14 01:21:59;;;;;;;4.45;4.00;;;9.00;54.90;;;;;;20439;6789;338791;-73
2023/04/14 01:24:38;;;;;;;4.10;3.75;;;9.40;53.30;;;;;;20532;6780;342294;-73
2023/04/14 01:27:54;;;;;;;3.47;3.17;;;9.40;53.20;;;;;;20731;6780;118909;-73
2023/04/14 01:30:43;;;;;;;3.83;3.53;;;9.30;53.80;;;;;;20535;6780;306820;-73
2023/04/14 01:33:20;;;;;;;3.43;3.13;;;9.00;54.60;;;;;;20548;6780;117651;-73
2023/04/14 01:35:56;;;;;;;4.03;3.65;;;9.00;54.10;;;;;;20459;6799;337408;-73
2023/04/14 01:38:31;;;;;;;3.40;3.13;;;9.00;53.80;;;;;;20682;6799;117187;-72
2023/04/14 01:41:07;;;;;;;3.92;3.62;;;8.90;54.20;;;;;;20445;6807;312370;-72
2023/04/14 01:43:42;;;;;;;4.00;3.60;;;8.90;54.90;;;;;;20457;6799;307630;-73
2023/04/14 01:46:18;;;;;;;4.03;3.73;;;9.10;53.70;;;;;;20475;6799;282106;-73
2023/04/14 01:48:54;;;;;;;3.20;3.00;;;9.30;52.90;;;;;;20687;6799;117045;-73
2023/04/14 01:51:30;;;;;;;3.33;3.13;;;8.70;55.00;;;;;;20629;6800;117560;-72
2023/04/14 01:54:05;;;;;;;3.63;3.30;;;8.70;54.20;;;;;;20690;6799;117019;-73
2023/04/14 01:56:41;;;;;;;3.60;3.30;;;8.40;55.10;;;;;;20687;6800;117123;-73
2023/04/14 01:59:17;;;;;;;3.47;3.20;;;8.20;55.80;;;;;;20669;6799;119932;-73
2023/04/14 02:01:52;;;;;;;3.83;3.27;;;7.90;56.20;;;;;;20628;6800;122750;-72
2023/04/14 02:04:28;;;;;;;3.33;3.03;;;7.80;56.80;;;;;;20701;6799;117245;-73
2023/04/14 02:07:03;;;;;;;4.05;3.75;;;7.70;57.30;;;;;;20507;6800;336429;-73
2023/04/14 02:09:39;;;;;;;5.17;4.10;;;7.90;56.50;;;;;;20463;6799;278988;-73
2023/04/14 02:12:15;;;;;;;4.00;3.70;;;8.30;55.40;;;;;;20386;6800;285736;-72
2023/04/14 02:14:50;;;;;;;4.10;3.80;;;8.60;54.50;;;;;;20472;6799;308234;-73
2023/04/14 02:17:26;;;;;;;3.72;3.42;;;8.80;54.00;;;;;;20458;6800;335771;-73
2023/04/14 02:20:01;;;;;;;5.50;3.70;;;9.00;53.50;;;;;;20688;6799;117038;-72
2023/04/14 02:22:37;;;;;;;4.50;4.10;;;8.70;53.90;;;;;;20383;6799;343192;-72
2023/04/14 02:25:12;;;;;;;6.30;3.50;;;8.70;54.00;;;;;;20728;6780;121702;-73
2023/04/14 02:27:51;;;;;;;4.20;3.53;;;8.50;54.30;;;;;;20629;6797;117323;-72
2023/04/14 02:30:28;;;;;;;4.40;4.00;;;8.10;55.10;;;;;;20404;6823;283901;-72
2023/04/14 02:33:04;;;;;;;4.53;4.15;;;8.20;55.00;;;;;;20279;6808;281554;-73
2023/04/14 02:35:46;;;;;;;4.30;4.00;;;8.50;54.30;;;;;;20636;6815;117675;-73
2023/04/14 02:38:23;;;;;;;4.40;4.00;;;8.30;54.50;;;;;;20400;6821;302372;-73
2023/04/14 02:40:58;;;;;;;4.03;3.83;;;8.40;54.60;;;;;;20417;6833;308512;-73
2023/04/14 02:43:34;;;;;;;4.17;3.70;;;8.60;54.00;;;;;;20728;6780;122128;-73
2023/04/14 02:46:09;;;;;;;4.37;3.73;;;8.40;54.30;;;;;;20640;6817;117235;-73
2023/04/14 02:48:45;;;;;;;4.17;3.50;;;8.00;55.20;;;;;;20657;6810;119305;-72
2023/04/14 02:51:21;;;;;;;4.00;3.67;;;7.70;56.00;;;;;;20618;6810;118309;-72
2023/04/14 02:53:57;;;;;;;4.45;4.05;;;7.70;56.80;;;;;;20474;6795;346009;-73
2023/04/14 02:56:32;;;;;;;4.32;3.92;;;7.70;56.30;;;;;;20446;6810;309531;-73
2023/04/14 02:59:08;;;;;;;4.00;3.60;;;8.00;55.00;;;;;;20659;6815;118944;-72
2023/04/14 03:01:44;;;;;;;7.13;3.73;;;7.90;55.00;;;;;;20596;6799;117870;-72
2023/04/14 03:04:20;;;;;;;4.40;4.00;;;7.70;55.80;;;;;;20505;6786;306065;-72
2023/04/14 03:06:55;;;;;;;4.03;3.63;;;7.80;55.90;;;;;;20759;6800;118084;-72
2023/04/14 03:09:32;;;;;;;3.73;3.43;;;7.70;55.80;;;;;;20673;6782;117485;-72
2023/04/14 03:12:07;;;;;;;6.37;3.77;;;7.50;56.30;;;;;;20612;6791;118579;-72
2023/04/14 03:14:43;;;;;;;5.33;3.40;;;7.30;56.90;;;;;;20720;6791;117079;-72
2023/04/14 03:17:19;;;;;;;4.40;4.00;;;7.10;57.50;;;;;;20496;6791;278499;-73
2023/04/14 03:19:54;;;;;;;5.80;4.28;;;7.30;56.70;;;;;;20513;6790;306515;-72
2023/04/14 03:22:29;;;;;;;5.03;4.20;;;7.70;55.50;;;;;;20397;6790;343606;-72
2023/04/14 03:25:05;;;;;;;6.12;4.20;;;8.00;54.50;;;;;;20500;6792;278663;-72
2023/04/14 03:27:41;;;;;;;6.00;3.50;;;8.20;53.90;;;;;;20638;6803;117145;-72
2023/04/14 03:30:16;;;;;;;4.83;3.47;;;8.00;54.30;;;;;;20608;6822;121474;-72
2023/04/14 03:32:52;;;;;;;3.43;3.23;;;7.60;55.20;;;;;;20495;6825;117433;-73
2023/04/14 03:35:27;;;;;;;3.70;3.40;;;7.30;56.20;;;;;;20542;6825;117684;-73
2023/04/14 03:38:05;;;;;;;4.57;3.33;;;7.10;57.00;;;;;;20591;6836;120413;-73
2023/04/14 03:40:41;;;;;;;5.28;4.10;;;7.10;57.00;;;;;;20404;6818;313633;-72
2023/04/14 03:43:18;;;;;;;4.55;3.80;;;7.10;57.00;;;;;;20312;6803;280853;-73
2023/04/14 03:45:56;;;;;;;3.87;3.60;;;7.50;55.70;;;;;;20701;6781;117339;-73
2023/04/14 03:48:32;;;;;;;3.95;3.55;;;7.40;55.60;;;;;;20454;6788;340377;-72
2023/04/14 03:51:07;;;;;;;3.80;3.50;;;7.60;55.30;;;;;;20635;6803;117145;-72
2023/04/14 03:53:41;;;;;;;4.22;3.62;;;7.50;55.40;;;;;;20464;6795;338464;-72
2023/04/14 03:56:17;;;;;;;4.10;3.30;;;7.60;54.90;;;;;;20691;6798;117116;-74
2023/04/14 03:58:54;;;;;;;4.82;3.80;;;7.50;54.40;;;;;;20437;6812;308046;-71
2023/04/14 04:01:29;;;;;;;3.97;3.50;;;7.50;54.50;;;;;;20618;6798;120999;-71
2023/04/14 04:04:05;;;;;;;5.75;3.87;;;7.40;54.70;;;;;;20442;6810;338608;-71
2023/04/14 04:06:42;;;;;;;5.20;3.90;;;7.80;53.90;;;;;;20424;6825;312345;-71
2023/04/14 04:09:17;;;;;;;6.97;3.43;;;7.70;53.80;;;;;;20663;6811;118377;-71
2023/04/14 04:11:52;;;;;;;7.57;3.70;;;7.60;54.10;;;;;;20422;6799;303485;-73
2023/04/14 04:14:28;;;;;;;5.12;4.20;;;7.60;54.00;;;;;;20504;6789;307707;-72
2023/04/14 04:17:03;;;;;;;3.47;3.17;;;7.80;53.20;;;;;;20701;6789;117034;-72
2023/04/14 04:19:40;;;;;;;5.37;3.50;;;7.70;53.60;;;;;;20644;6803;117245;-72
2023/04/14 04:22:16;;;;;;;4.67;3.57;;;7.30;54.50;;;;;;20528;6810;119019;-70
2023/04/14 04:24:51;;;;;;;4.10;3.63;;;7.00;55.40;;;;;;20474;6795;307328;-71
2023/04/14 04:27:28;;;;;;;4.37;3.60;;;7.40;54.30;;;;;;20420;6795;282432;-71
2023/04/14 04:30:11;;;;;;;4.03;3.27;;;7.40;54.30;;;;;;20700;6795;117989;-71
2023/04/14 04:32:47;;;;;;;3.87;2.80;;;7.40;54.50;;;;;;20434;6828;117691;-73
2023/04/14 04:35:23;;;;;;;5.07;3.50;;;7.00;55.20;;;;;;20381;6825;341568;-73
2023/04/14 04:38:00;;;;;;;3.90;3.30;;;7.10;54.70;;;;;;20398;6825;339848;-70
2023/04/14 04:40:34;;;;;;;3.70;3.40;;;7.40;53.90;;;;;;20439;6820;279208;-72
2023/04/14 04:43:09;;;;;;;4.97;3.60;;;7.70;53.20;;;;;;20293;6805;301989;-71
2023/04/14 04:45:49;;;;;;;4.93;2.97;;;7.60;52.50;;;;;;20697;6798;117319;-71
2023/04/14 04:48:25;;;;;;;4.32;3.50;;;7.60;52.90;;;;;;20091;6885;339076;-72
2023/04/14 04:51:00;;;;;;;3.90;3.50;;;7.60;53.00;;;;;;20676;6811;117165;-71
2023/04/14 04:53:36;;;;;;;4.60;3.97;;;7.50;53.40;;;;;;20459;6796;307642;-73
2023/04/14 04:56:11;;;;;;;6.68;4.20;;;7.40;53.20;;;;;;20529;6784;309573;-73
2023/04/14 04:58:47;;;;;;;4.63;3.60;;;7.60;52.40;;;;;;20746;6784;116827;-74
2023/04/14 05:01:22;;;;;;;7.20;3.57;;;7.40;52.80;;;;;;20687;6784;117629;-74
2023/04/14 05:03:58;;;;;;;4.40;3.97;;;7.00;53.70;;;;;;20525;6787;277335;-73
2023/04/14 05:06:34;;;;;;;5.20;4.10;;;7.10;54.10;;;;;;20521;6787;306815;-73
2023/04/14 05:09:09;;;;;;;3.97;3.53;;;7.30;53.50;;;;;;20498;6790;334996;-73
2023/04/14 05:11:46;;;;;;;5.37;3.78;;;7.50;53.50;;;;;;20427;6805;309938;-74
2023/04/14 05:14:25;;;;;;;4.90;3.58;;;7.70;52.60;;;;;;20503;6792;307591;-73
2023/04/14 05:16:57;;;;;;;4.60;3.67;;;7.80;52.30;;;;;;20723;6787;117945;-73
2023/04/14 05:19:34;;;;;;;4.97;3.17;;;7.50;53.10;;;;;;20508;6787;311856;-73
2023/04/14 05:22:10;;;;;;;7.43;3.00;;;7.50;53.10;;;;;;20646;6787;117911;-75
2023/04/14 05:24:50;;;;;;;4.23;2.60;;;7.30;53.60;;;;;;20732;6801;117700;-73
2023/04/14 05:27:28;;;;;;;4.23;2.70;;;7.00;54.60;;;;;;20642;6801;117833;-74
2023/04/14 05:30:02;;;;;;;3.27;2.20;;;6.80;55.60;;;;;;20598;6829;117383;-74
2023/04/14 05:32:39;;;;;;;3.30;2.70;;;6.60;57.00;;;;;;20479;6822;118377;-73
2023/04/14 05:35:14;;;;;;;2.57;2.33;;;6.50;57.00;;;;;;20641;6805;117372;-74
2023/04/14 05:37:50;;;;;;;2.83;2.43;;;6.50;57.50;;;;;;20615;6827;117799;-74
2023/04/14 05:40:27;;;;;;;5.00;2.57;;;6.40;58.50;;;;;;20714;6805;123983;-72
2023/04/14 05:43:02;;;;;;;4.18;3.00;;;6.30;58.30;;;;;;20321;6809;346907;-72
2023/04/14 05:45:38;;;;;;;4.10;2.53;;;6.80;57.10;;;;;;20638;6807;125852;-71
2023/04/14 05:48:15;;;;;;;4.25;3.20;;;6.80;57.10;;;;;;20449;6813;292309;-72
2023/04/14 05:50:49;;;;;;;4.07;2.80;;;7.00;55.90;;;;;;20658;6806;118006;-72
2023/04/14 05:53:28;;;;;;;5.28;3.17;;;7.10;55.90;;;;;;20346;6834;314906;-73
2023/04/14 05:56:00;;;;;;;3.03;2.60;;;7.30;55.20;;;;;;20771;6768;116945;-71
2023/04/14 05:58:39;;;;;;;6.73;3.13;;;7.30;55.00;;;;;;20774;6784;116858;-71
2023/04/14 06:01:11;;;;;;;4.90;2.37;;;7.20;56.00;;;;;;20713;6764;117893;-73
2023/04/14 06:03:47;;;;;;;4.53;2.70;;;7.10;56.60;;;;;;20721;6788;117179;-72
2023/04/14 06:06:23;;;;;;;2.97;2.57;;;6.90;56.90;;;;;;20711;6789;117141;-71
2023/04/14 06:08:58;;;;;;;5.05;2.92;;;6.90;57.50;;;;;;20494;6789;336739;-71
2023/04/14 06:11:38;;;;;;;5.22;3.00;;;7.20;56.00;;;;;;20426;6798;313471;-73
2023/04/14 06:14:12;;;;;;;4.87;3.05;;;7.70;54.80;;;;;;20526;6785;278791;-73
2023/04/14 06:16:49;;;;;;;3.17;2.50;;;8.10;53.70;;;;;;20727;6785;117224;-73
2023/04/14 06:19:23;;;;;;;5.10;2.57;;;8.00;54.00;;;;;;20710;6788;118438;-73
2023/04/14 06:21:59;;;;;;;4.60;2.70;;;7.80;54.80;;;;;;20615;6800;118039;-73
2023/04/14 06:24:34;;;;;;;3.87;2.80;;;7.60;55.80;;;;;;20453;6800;337394;-72
2023/04/14 06:27:10;;;;;;;4.10;2.65;;;8.00;55.50;;;;;;20411;6815;311841;-73
2023/04/14 06:29:55;;;;;;;4.30;2.67;;;8.60;53.70;;;;;;20468;6815;294656;-73
2023/04/14 06:32:21;;;;;;;4.67;2.90;;;9.10;52.00;;;;;;20327;6807;283225;-73
2023/04/14 06:35:00;;;;;;;4.37;2.93;;;10.00;48.60;;;;;;20561;6787;297388;-73
2023/04/14 06:37:37;;;;;;;3.33;2.23;;;10.00;49.50;;;;;;20711;6787;117693;-73
2023/04/14 06:40:09;;;;;;;4.60;2.43;;;10.00;49.60;;;;;;20727;6787;117121;-73
2023/04/14 06:42:45;;;;;;;4.60;2.60;;;9.80;51.80;;;;;;20414;6772;286788;-72
2023/04/14 06:45:21;;;;;;;4.93;2.73;;;9.90;50.10;;;;;;20560;6772;293064;-73
2023/04/14 06:47:56;;;;;;;6.10;3.00;;;10.20;47.50;;;;;;20579;6772;335960;-70
2023/04/14 06:50:32;;;;;;;4.57;2.40;;;10.40;47.20;;;;;;20762;6793;117098;-71
2023/04/14 06:53:10;;;;;;;3.87;2.73;;;10.40;48.30;;;;;;20624;6772;117969;-69
2023/04/14 06:55:43;;;;;;;4.25;2.67;;;10.20;49.40;;;;;;20475;6796;308104;-72
2023/04/14 06:58:19;;;;;;;3.67;2.20;;;10.40;48.40;;;;;;20705;6794;123287;-71
2023/04/14 07:00:55;;;;;;;3.73;2.40;;;10.50;49.30;;;;;;20445;6804;336219;-74
2023/04/14 07:03:30;;;;;;;4.33;2.60;;;10.80;47.60;;;;;;20660;6804;121481;-72
2023/04/14 07:06:06;;;;;;;4.20;2.27;;;10.90;48.40;;;;;;20661;6808;118440;-72
2023/04/14 07:08:41;;;;;;;5.32;2.40;;;10.90;49.20;;;;;;20485;6790;334453;-71
2023/04/14 07:11:16;;;;;;;4.65;2.75;;;11.20;47.30;;;;;;20476;6789;284640;-73
2023/04/14 07:13:52;;;;;;;5.17;2.30;;;11.70;46.70;;;;;;20752;6786;122745;-73
2023/04/14 07:16:28;;;;;;;5.07;2.20;;;11.80;47.40;;;;;;20746;6787;117167;-74
2023/04/14 07:19:04;;;;;;;3.08;1.95;;;11.80;48.20;;;;;;20532;6787;336146;-72
2023/04/14 07:21:39;;;;;;;2.60;1.90;;;12.00;45.70;;;;;;20701;6787;117700;-73
2023/04/14 07:24:15;;;;;;;3.00;1.47;;;12.20;46.30;;;;;;20744;6787;118487;-74
2023/04/14 07:26:51;;;;;;;3.77;1.87;;;12.00;47.50;;;;;;20689;6801;117246;-73
2023/04/14 07:29:28;;;;;;;3.00;2.00;;;12.00;47.40;;;;;;20505;6787;307204;-73
2023/04/14 07:32:02;;;;;;;3.27;2.23;;;12.30;44.10;;;;;;20338;6821;285346;-73
2023/04/14 07:34:40;;;;;;;4.40;2.03;;;12.80;43.50;;;;;;20684;6801;117350;-74
2023/04/14 07:37:14;;;;;;;4.53;1.80;;;12.90;44.90;;;;;;20708;6786;117260;-73
2023/04/14 07:39:48;;;;;;;2.33;2.00;;;12.80;46.00;;;;;;20487;6796;338475;-72
2023/04/14 07:42:25;;;;;;;3.83;1.47;;;13.10;42.50;;;;;;20576;6796;118224;-75
2023/04/14 07:45:02;;;;;;;4.37;1.73;;;13.20;45.70;;;;;;20702;6796;117368;-75
2023/04/14 07:47:37;;;;;;;4.05;2.30;;;13.10;44.80;;;;;;20485;6796;278703;-73
2023/04/14 07:50:13;;;;;;;3.60;2.30;;;13.50;42.70;;;;;;20488;6796;279523;-73
2023/04/14 07:52:48;;;;;;;1.60;1.50;;;13.90;41.80;;;;;;20537;6796;118182;-72
2023/04/14 07:55:24;;;;;;;2.50;2.00;;;14.00;43.40;;;;;;20461;6796;329959;-73
2023/04/14 07:58:00;;;;;;;1.73;1.63;;;14.30;43.40;;;;;;20665;6796;117258;-73
2023/04/14 08:00:36;;;;;;;2.95;2.05;;;14.40;45.00;;;;;;20487;6796;308882;-73
2023/04/14 08:03:12;;;;;;;2.60;2.10;;;14.60;43.50;;;;;;20286;6796;280935;-73
2023/04/14 08:05:46;;;;;;;2.87;1.83;;;15.10;43.60;;;;;;20671;6796;121888;-72
2023/04/14 08:08:22;;;;;;;2.50;1.87;;;15.20;44.30;;;;;;20704;6796;117204;-73
2023/04/14 08:10:57;;;;;;;4.07;2.42;;;15.10;44.70;;;;;;20487;6796;279437;-73
2023/04/14 08:13:33;;;;;;;3.37;1.83;;;15.20;42.20;;;;;;20526;6781;282985;-73
2023/04/14 08:16:09;;;;;;;3.03;1.90;;;15.60;41.20;;;;;;20694;6796;117249;-72
2023/04/14 08:18:44;;;;;;;3.37;2.00;;;15.70;42.20;;;;;;20707;6772;117382;-73
2023/04/14 08:21:20;;;;;;;3.07;1.80;;;15.50;43.00;;;;;;20734;6767;117313;-73
2023/04/14 08:23:56;;;;;;;3.93;1.80;;;15.40;43.70;;;;;;20703;6795;117383;-73
2023/04/14 08:26:31;;;;;;;2.97;2.08;;;15.40;44.40;;;;;;20546;6776;278030;-73
2023/04/14 08:29:06;;;;;;;3.20;1.90;;;15.70;40.90;;;;;;20806;6761;117435;-73
2023/04/14 08:31:42;;;;;;;5.23;1.60;;;15.80;42.00;;;;;;20621;6803;118088;-72
2023/04/14 08:34:21;;;;;;;3.50;1.95;;;15.80;42.70;;;;;;20486;6797;307953;-72
2023/04/14 08:36:53;;;;;;;3.67;1.93;;;16.10;40.20;;;;;;20465;6803;314082;-72
2023/04/14 08:39:29;;;;;;;3.73;1.83;;;16.50;39.40;;;;;;20775;6767;122926;-73
2023/04/14 08:42:05;;;;;;;2.57;1.77;;;16.60;40.30;;;;;;20640;6793;118511;-72
2023/04/14 08:44:40;;;;;;;2.58;2.10;;;16.40;41.00;;;;;;20412;6822;306240;-72
2023/04/14 08:47:16;;;;;;;4.10;2.10;;;17.00;38.60;;;;;;20477;6792;298900;-73
2023/04/14 08:49:53;;;;;;;2.90;1.77;;;17.00;38.60;;;;;;20711;6792;123133;-73
2023/04/14 08:52:29;;;;;;;3.17;1.67;;;17.00;39.60;;;;;;20686;6771;117569;-73
2023/04/14 08:55:05;;;;;;;4.00;2.08;;;16.90;40.70;;;;;;20500;6799;307690;-72
2023/04/14 08:57:42;;;;;;;5.00;1.93;;;17.10;38.60;;;;;;20739;6792;117249;-72
2023/04/14 09:00:19;;;;;;;1.80;1.57;;;17.20;40.10;;;;;;20764;6777;117270;-72
2023/04/14 09:02:53;;;;;;;3.05;1.92;;;17.30;36.40;;;;;;20394;6793;303510;-72
2023/04/14 09:05:28;;;;;;;3.77;1.87;;;17.30;36.40;;;;;;20732;6780;117208;-72
2023/04/14 09:08:03;;;;;;;2.17;1.67;;;17.30;37.90;;;;;;20712;6807;117780;-72
2023/04/14 09:10:41;;;;;;;2.70;1.70;;;17.20;39.50;;;;;;20711;6793;117372;-72
2023/04/14 09:13:15;;;;;;;4.10;2.20;;;17.10;40.50;;;;;;20273;6807;310281;-73
2023/04/14 09:15:51;;;;;;;2.77;1.73;;;17.40;36.90;;;;;;20684;6808;118833;-73
2023/04/14 09:18:26;;;;;;;3.03;1.90;;;17.60;38.50;;;;;;20667;6808;118026;-72
2023/04/14 09:21:02;;;;;;;2.27;1.87;;;17.60;39.40;;;;;;20687;6799;117781;-72
2023/04/14 09:23:40;;;;;;;3.30;1.80;;;17.60;39.90;;;;;;20725;6779;119573;-72
2023/04/14 09:26:12;;;;;;;3.53;2.37;;;17.60;39.90;;;;;;20482;6798;306549;-72
2023/04/14 09:28:48;;;;;;;4.07;2.27;;;17.80;35.70;;;;;;20484;6799;285149;-72
2023/04/14 09:31:24;;;;;;;2.87;2.03;;;18.20;35.20;;;;;;20440;6799;296131;-72
2023/04/14 09:33:59;;;;;;;2.40;1.60;;;18.50;35.00;;;;;;20697;6801;117725;-72
2023/04/14 09:36:35;;;;;;;3.22;2.00;;;18.40;36.60;;;;;;20507;6792;283125;-72
2023/04/14 09:39:17;;;;;;;3.10;2.00;;;18.60;36.00;;;;;;20500;6792;311653;-72
2023/04/14 09:41:52;;;;;;;3.53;1.80;;;18.90;35.00;;;;;;20629;6792;117855;-73
2023/04/14 09:44:28;;;;;;;2.30;1.90;;;18.90;36.70;;;;;;20502;6793;308882;-72
2023/04/14 09:47:05;;;;;;;2.30;1.67;;;19.10;34.90;;;;;;20697;6798;117633;-72
2023/04/14 09:49:41;;;;;;;4.10;2.17;;;19.20;36.30;;;;;;20569;6768;282544;-73
2023/04/14 09:52:16;;;;;;;4.03;2.10;;;19.20;31.60;;;;;;20491;6769;288810;-72
2023/04/14 09:54:52;;;;;;;3.13;2.10;;;19.20;31.70;;;;;;20556;6783;307092;-73
2023/04/14 09:57:30;;;;;;;5.68;2.20;;;19.30;33.00;;;;;;20469;6802;337894;-75
2023/04/14 10:00:16;;;;;;;2.40;1.63;;;19.40;32.70;;;;;;20702;6802;117179;-75
2023/04/14 10:02:57;;;;;;;2.23;2.00;;;19.40;34.40;;;;;;20460;6881;118225;-74
2023/04/14 10:05:42;;;;;;;4.37;1.63;;;19.20;34.90;;;;;;20647;6810;118248;-74
2023/04/14 10:08:09;;;;;;;3.37;2.10;;;18.90;33.50;;;;;;20480;6802;308649;-75
2023/04/14 10:10:45;;;;;;;4.50;1.93;;;18.90;32.80;;;;;;20686;6802;123782;-74
2023/04/14 10:13:22;;;;;;;4.40;2.10;;;18.70;34.10;;;;;;20303;6802;309820;-73
2023/04/14 10:15:57;;;;;;;4.00;2.40;;;18.60;32.80;;;;;;20487;6797;312012;-74
2023/04/14 10:18:34;;;;;;;3.67;2.30;;;18.90;32.50;;;;;;20529;6784;278212;-73
2023/04/14 10:21:12;;;;;;;3.43;2.00;;;18.80;32.50;;;;;;20523;6779;307106;-73
2023/04/14 10:23:46;;;;;;;12.03;8.03;;;18.90;30.90;;;;;;20720;6783;117329;-72
2023/04/14 10:26:20;;;;;;;5.13;2.77;;;18.50;32.60;;;;;;20775;6769;117491;-76
2023/04/14 10:28:56;;;;;;;3.63;1.87;;;18.00;34.00;;;;;;20710;6784;123334;-75
2023/04/14 10:31:37;;;;;;;4.65;2.60;;;17.60;34.10;;;;;;20498;6777;309666;-76
2023/04/14 10:34:12;;;;;;;2.47;1.80;;;17.60;33.40;;;;;;20774;6768;117202;-75
2023/04/14 10:36:51;;;;;;;4.80;2.77;;;17.30;34.50;;;;;;20572;6768;310672;-73
2023/04/14 10:39:23;;;;;;;2.13;1.90;;;17.30;33.80;;;;;;20761;6768;117376;-71
2023/04/14 10:42:01;;;;;;;2.70;1.93;;;17.00;34.60;;;;;;20707;6768;117568;-74
2023/04/14 10:44:38;;;;;;;3.67;1.73;;;16.50;35.40;;;;;;20751;6777;117173;-77
2023/04/14 10:47:13;;;;;;;4.70;2.57;;;16.30;36.30;;;;;;20507;6833;308088;-73
2023/04/14 10:49:49;;;;;;;3.03;1.67;;;16.40;32.60;;;;;;20702;6807;118491;-73
2023/04/14 10:52:24;;;;;;;2.63;1.57;;;16.60;34.40;;;;;;20608;6807;121678;-75
2023/04/14 10:55:06;;;;;;;3.77;2.00;;;16.60;35.40;;;;;;20478;6807;309136;-74
2023/04/14 10:57:39;;;;;;;2.07;1.47;;;17.00;33.20;;;;;;20677;6807;122619;-76
2023/04/14 11:00:18;;;;;;;4.15;2.95;;;17.50;32.20;;;;;;20521;6786;281851;-74
2023/04/14 11:02:57;;;;;;;2.90;2.10;;;17.50;32.20;;;;;;20327;6792;340642;-75
2023/04/14 11:05:33;;;;;;;2.37;1.97;;;17.60;34.00;;;;;;20790;6768;117292;-74
2023/04/14 11:08:29;;;;;;;3.73;1.90;;;17.60;33.90;;;;;;20764;6783;117167;-74
2023/04/14 11:11:05;;;;;;;6.23;2.67;;;17.30;32.30;;;;;;20587;6768;307036;-74
2023/04/14 11:13:46;;;;;;;7.17;2.00;;;17.30;32.30;;;;;;20722;6783;117737;-74
2023/04/14 11:16:16;;;;;;;2.97;1.83;;;17.10;33.60;;;;;;20725;6795;117394;-77
2023/04/14 11:18:52;;;;;;;3.80;2.00;;;16.80;34.60;;;;;;20452;6809;283058;-75
2023/04/14 11:21:28;;;;;;;5.13;1.90;;;16.80;32.80;;;;;;20665;6792;117706;-75
2023/04/14 11:24:03;;;;;;;3.23;1.90;;;16.70;34.20;;;;;;20749;6780;117810;-72
2023/04/14 11:26:39;;;;;;;12.23;5.97;;;16.40;34.90;;;;;;20753;6784;67480;-73
2023/04/14 11:29:14;;;;;;;3.53;2.20;;;16.20;35.70;;;;;;20480;6784;307018;-72
2023/04/14 11:32:04;;;;;;;3.67;2.00;;;16.30;33.30;;;;;;20680;6780;117681;-72
2023/04/14 11:34:38;;;;;;;3.93;2.07;;;16.30;34.10;;;;;;20797;6768;117202;-72
2023/04/14 11:37:14;;;;;;;2.63;1.80;;;16.10;34.70;;;;;;20686;6795;123089;-72
2023/04/14 11:39:50;;;;;;;2.50;1.80;;;16.30;31.10;;;;;;20488;6794;309709;-73
2023/04/14 11:42:27;;;;;;;2.80;1.20;;;16.30;31.00;;;;;;20612;6794;117636;-72
2023/04/14 11:45:03;;;;;;;3.13;1.43;;;16.40;32.40;;;;;;20749;6777;117184;-73
2023/04/14 11:47:38;;;;;;;3.12;1.80;;;16.40;33.00;;;;;;20534;6777;290583;-73
2023/04/14 11:50:14;;;;;;;3.67;1.77;;;16.60;29.60;;;;;;20813;6763;117303;-73
2023/04/14 11:52:53;;;;;;;3.50;1.98;;;17.10;29.70;;;;;;20398;6777;310739;-73
2023/04/14 11:55:27;;;;;;;1.90;1.60;;;17.10;29.70;;;;;;20736;6779;117755;-74
2023/04/14 11:58:03;;;;;;;1.97;1.50;;;17.20;31.10;;;;;;20801;6764;122994;-74
2023/04/14 12:00:39;;;;;;;3.10;1.60;;;17.10;32.20;;;;;;20588;6764;310906;-74
2023/04/14 12:03:14;;;;;;;2.07;1.50;;;17.40;30.30;;;;;;20617;6764;117982;-73
2023/04/14 12:06:01;;;;;;;;;;;;;;;;;;;;;
2023/04/14 12:08:53;;;;;;;2.47;1.70;;;17.50;31.90;;;;;;20520;6779;283946;-72
2023/04/14 12:11:29;;;;;;;2.63;1.80;;;17.60;29.70;;;;;;20651;6794;118118;-73
2023/04/14 12:14:05;;;;;;;2.47;1.85;;;17.50;29.60;;;;;;20530;6782;308021;-72
2023/04/14 12:16:41;;;;;;;2.80;2.00;;;17.50;29.70;;;;;;20494;6795;313175;-73
2023/04/14 12:19:16;;;;;;;2.17;1.50;;;17.70;29.40;;;;;;20740;6777;123111;-74
2023/04/14 12:21:52;;;;;;;3.97;2.17;;;17.50;31.00;;;;;;20534;6768;308440;-72
2023/04/14 12:24:37;;;;;;;3.90;1.80;;;17.50;30.40;;;;;;20537;6783;315835;-72
2023/04/14 12:27:13;;;;;;;2.47;1.87;;;17.70;30.30;;;;;;20727;6783;117248;-72
2023/04/14 12:29:51;;;;;;;2.30;1.73;;;17.60;31.80;;;;;;20741;6783;117322;-75
2023/04/14 12:32:29;;;;;;;3.13;1.77;;;17.30;32.90;;;;;;20634;6783;118112;-73
2023/04/14 12:35:02;;;;;;;2.10;1.80;;;17.00;33.80;;;;;;20742;6784;117682;-72
2023/04/14 12:37:40;;;;;;;2.50;1.80;;;16.80;34.10;;;;;;20718;6784;119067;-71
2023/04/14 12:40:14;;;;;;;2.70;1.83;;;16.60;34.50;;;;;;20741;6784;117406;-71
2023/04/14 12:42:52;;;;;;;2.10;1.60;;;16.30;34.60;;;;;;20574;6784;118248;-72
2023/04/14 12:45:25;;;;;;;3.70;2.17;;;16.20;34.90;;;;;;20506;6784;306004;-70
2023/04/14 12:48:00;;;;;;;3.13;2.13;;;16.30;32.10;;;;;;20529;6784;307429;-72
2023/04/14 12:50:36;;;;;;;3.43;1.60;;;16.70;30.80;;;;;;20750;6784;117285;-71
2023/04/14 12:53:25;;;;;;;4.20;2.30;;;16.60;31.90;;;;;;20338;6784;340587;-72
2023/04/14 12:56:07;;;;;;;4.55;2.12;;;16.70;29.80;;;;;;20541;6778;336667;-72
2023/04/14 12:58:45;;;;;;;2.27;1.40;;;17.00;29.80;;;;;;20701;6793;117380;-75
2023/04/14 13:01:18;;;;;;;3.70;1.67;;;16.80;31.00;;;;;;20721;6792;120571;-73
2023/04/14 13:03:54;;;;;;;2.30;1.60;;;16.60;32.00;;;;;;20833;6771;117772;-73
2023/04/14 13:06:30;;;;;;;3.92;2.00;;;16.50;30.60;;;;;;20439;6823;284148;-73
2023/04/14 13:09:06;;;;;;;4.57;1.87;;;16.50;30.60;;;;;;20648;6816;117171;-73
2023/04/14 13:11:43;;;;;;;2.53;2.10;;;16.90;30.10;;;;;;20396;6806;326462;-74
2023/04/14 13:14:18;;;;;;;3.77;1.90;;;16.80;30.00;;;;;;20417;6822;298125;-72
2023/04/14 13:16:53;;;;;;;3.25;2.03;;;17.20;29.10;;;;;;20531;6792;278674;-73
2023/04/14 13:19:29;;;;;;;3.23;1.80;;;17.40;28.20;;;;;;20606;6807;117603;-73
2023/04/14 13:22:04;;;;;;;2.73;1.77;;;17.20;29.50;;;;;;20587;6807;117840;-73
2023/04/14 13:24:40;;;;;;;2.78;1.62;;;16.70;30.20;;;;;;20456;6798;279486;-72
2023/04/14 13:27:15;;;;;;;2.67;1.40;;;16.70;28.80;;;;;;20686;6792;117777;-72
2023/04/14 13:29:52;;;;;;;3.13;1.60;;;16.60;29.90;;;;;;20712;6792;117648;-71